Time;durP1;ratioP1;P1;durP2;ratioP2;P2;SDS_P1;SDS_P2;PMS_P1;PMS_P2;Temp;Humidity;BMP_temperature;BMP_pressure;BME280_temperature;BME280_humidity;BME280_pressure;Samples;Min_cycle;Max_cycle;Signal;HPM_P1;HPM_P2
2022/11/11 00:01:53;;;;;;;;;11.25;9.75;;;;;;;;5081331;27;45387;-78
2022/11/11 00:04:18;;;;;;;;;12.00;10.75;;;;;;;;5079001;27;45354;-78
2022/11/11 00:06:43;;;;;;;;;14.50;12.75;;;;;;;;5094463;27;45319;-78
2022/11/11 00:09:09;;;;;;;;;7.25;7.25;;;;;;;;5080680;27;46434;-78
2022/11/11 00:11:36;;;;;;;;;12.00;10.75;;;;;;;;5093298;27;45947;-79
2022/11/11 00:14:01;;;;;;;;;6.50;6.50;;;;;;;;5084396;27;45539;-79
2022/11/11 00:25:04;;;;;;;;;11.75;10.50;;;;;;;;5088280;27;45318;-78
2022/11/11 00:27:23;;;;;;;;;15.25;12.25;;;;;;;;5078573;27;45219;-78
2022/11/11 00:29:48;;;;;;;;;16.00;11.00;;;;;;;;5078096;27;45299;-78
2022/11/11 00:32:22;;;;;;;;;12.00;11.00;;;;;;;;5084224;27;45288;-78
2022/11/11 00:37:35;;;;;;;;;14.75;13.00;;;;;;;;5079203;27;45612;-79
2022/11/11 00:40:00;;;;;;;;;11.75;10.00;;;;;;;;5078350;27;45502;-78
2022/11/11 00:42:26;;;;;;;;;13.00;12.00;;;;;;;;5082419;27;45281;-78
2022/11/11 00:44:51;;;;;;;;;11.00;9.75;;;;;;;;5095250;27;45453;-79
2022/11/11 00:52:45;;;;;;;;;10.00;9.25;;;;;;;;5085594;27;45350;-78
2022/11/11 00:55:10;;;;;;;;;10.25;9.00;;;;;;;;5083901;27;45339;-78
2022/11/11 00:57:35;;;;;;;;;11.00;11.00;;;;;;;;5088568;27;45657;-78
2022/11/11 01:00:00;;;;;;;;;12.00;10.25;;;;;;;;5081329;27;46679;-78
2022/11/11 01:02:26;;;;;;;;;12.00;11.00;;;;;;;;5083485;27;45268;-78
2022/11/11 01:04:51;;;;;;;;;13.75;11.75;;;;;;;;5080308;27;45536;-78
2022/11/11 01:07:16;;;;;;;;;13.00;7.75;;;;;;;;5082043;27;45504;-78
2022/11/11 01:09:41;;;;;;;;;11.25;10.50;;;;;;;;5092076;27;45431;-78
2022/11/11 01:12:06;;;;;;;;;13.00;11.25;;;;;;;;5082930;27;45304;-78
2022/11/11 01:14:32;;;;;;;;;15.00;11.75;;;;;;;;5081465;27;45289;-79
2022/11/11 01:16:57;;;;;;;;;12.75;11.75;;;;;;;;5097652;27;45341;-78
2022/11/11 01:19:22;;;;;;;;;11.75;10.75;;;;;;;;5087644;27;45434;-79
2022/11/11 01:21:47;;;;;;;;;13.25;11.25;;;;;;;;5091342;27;45329;-78
2022/11/11 01:24:12;;;;;;;;;11.75;10.50;;;;;;;;5083036;27;45367;-78
2022/11/11 01:26:38;;;;;;;;;12.50;10.75;;;;;;;;5080604;27;45443;-78
2022/11/11 01:29:03;;;;;;;;;11.00;10.75;;;;;;;;5081186;27;46045;-78
2022/11/11 01:31:28;;;;;;;;;15.50;11.50;;;;;;;;5081370;27;45253;-78
2022/11/11 01:33:53;;;;;;;;;12.50;11.00;;;;;;;;5083840;27;45274;-79
2022/11/11 01:36:26;;;;;;;;;10.25;10.00;;;;;;;;5083864;27;45527;-78
2022/11/11 01:38:53;;;;;;;;;16.50;13.50;;;;;;;;5081489;27;45361;-79
2022/11/11 01:41:32;;;;;;;;;12.25;11.00;;;;;;;;5081288;27;45354;-79
2022/11/11 01:43:57;;;;;;;;;15.25;14.00;;;;;;;;5080575;27;45513;-78
2022/11/11 01:46:35;;;;;;;;;16.25;13.75;;;;;;;;5082235;27;45309;-79
2022/11/11 01:49:20;;;;;;;;;13.25;12.00;;;;;;;;5083561;27;46000;-78
2022/11/11 01:51:55;;;;;;;;;13.75;10.00;;;;;;;;5061069;27;45517;-79
2022/11/11 01:54:30;;;;;;;;;12.00;10.75;;;;;;;;5082283;27;44839;-78
2022/11/11 01:57:01;;;;;;;;;13.00;12.75;;;;;;;;5081541;27;45284;-79
2022/11/11 01:59:27;;;;;;;;;19.00;14.00;;;;;;;;5088141;27;45688;-78
2022/11/11 02:01:52;;;;;;;;;11.75;11.75;;;;;;;;5082736;27;45413;-78
2022/11/11 02:07:05;;;;;;;;;14.00;12.75;;;;;;;;5087602;27;45504;-78
2022/11/11 02:09:30;;;;;;;;;12.50;10.00;;;;;;;;5080100;27;45320;-78
2022/11/11 02:14:46;;;;;;;;;13.75;12.00;;;;;;;;5070909;27;45504;-78
2022/11/11 02:17:13;;;;;;;;;14.50;13.50;;;;;;;;5086887;27;45220;-78
2022/11/11 02:20:11;;;;;;;;;14.25;13.00;;;;;;;;5086318;27;46022;-78
2022/11/11 02:22:45;;;;;;;;;17.25;12.50;;;;;;;;5054032;27;45332;-78
2022/11/11 02:25:11;;;;;;;;;15.25;11.25;;;;;;;;5080516;27;45394;-78
2022/11/11 02:27:40;;;;;;;;;15.75;12.00;;;;;;;;5082470;27;45370;-78
2022/11/11 02:30:05;;;;;;;;;14.00;10.75;;;;;;;;5087733;27;45469;-79
2022/11/11 02:32:31;;;;;;;;;16.50;11.00;;;;;;;;5084963;27;45263;-79
2022/11/11 02:34:56;;;;;;;;;13.25;13.00;;;;;;;;5084259;27;45161;-78
2022/11/11 02:37:22;;;;;;;;;12.25;11.00;;;;;;;;5086836;27;45283;-78
2022/11/11 02:39:49;;;;;;;;;12.25;12.00;;;;;;;;5079760;27;45455;-78
2022/11/11 02:42:15;;;;;;;;;11.50;11.50;;;;;;;;5083811;27;45378;-79
2022/11/11 02:44:40;;;;;;;;;13.00;12.00;;;;;;;;5082560;27;45449;-79
2022/11/11 02:47:05;;;;;;;;;9.25;8.75;;;;;;;;5082068;27;45329;-78
2022/11/11 02:49:31;;;;;;;;;13.25;11.50;;;;;;;;5084840;27;45075;-79
2022/11/11 02:51:57;;;;;;;;;10.75;10.75;;;;;;;;5079645;27;45402;-79
2022/11/11 02:54:23;;;;;;;;;9.50;8.25;;;;;;;;5081448;27;45298;-79
2022/11/11 02:57:06;;;;;;;;;11.00;10.25;;;;;;;;5079066;27;45501;-79
2022/11/11 02:59:32;;;;;;;;;11.25;10.25;;;;;;;;5095347;27;46930;-79
2022/11/11 03:01:57;;;;;;;;;14.00;12.00;;;;;;;;5081850;27;44848;-79
2022/11/11 03:04:22;;;;;;;;;12.00;11.25;;;;;;;;5079865;27;45416;-78
2022/11/11 03:06:47;;;;;;;;;10.25;9.75;;;;;;;;5081345;27;45542;-79
2022/11/11 03:09:12;;;;;;;;;14.75;12.50;;;;;;;;5079633;27;46091;-79
2022/11/11 03:11:38;;;;;;;;;13.25;11.00;;;;;;;;5086234;27;45450;-79
2022/11/11 03:14:03;;;;;;;;;10.25;10.25;;;;;;;;5087642;27;45390;-79
2022/11/11 03:19:12;;;;;;;;;12.00;10.00;;;;;;;;5090740;27;45436;-79
2022/11/11 03:21:38;;;;;;;;;11.75;10.50;;;;;;;;5089058;27;45406;-79
2022/11/11 03:24:03;;;;;;;;;8.75;8.00;;;;;;;;5089050;27;45748;-79
2022/11/11 03:26:29;;;;;;;;;15.25;12.75;;;;;;;;5078781;27;45423;-79
2022/11/11 03:28:54;;;;;;;;;15.00;12.75;;;;;;;;5091854;27;46219;-78
2022/11/11 03:31:19;;;;;;;;;12.50;11.75;;;;;;;;5079992;27;45240;-79
2022/11/11 03:33:44;;;;;;;;;14.75;12.00;;;;;;;;5083385;27;45242;-79
2022/11/11 03:36:10;;;;;;;;;13.75;11.00;;;;;;;;5080244;27;45263;-79
2022/11/11 03:38:35;;;;;;;;;14.75;12.75;;;;;;;;5081600;27;47668;-78
2022/11/11 03:41:00;;;;;;;;;13.00;11.00;;;;;;;;5078553;27;45286;-79
2022/11/11 03:43:27;;;;;;;;;11.50;10.75;;;;;;;;5084977;27;45522;-79
2022/11/11 03:45:53;;;;;;;;;15.50;12.00;;;;;;;;5093696;27;44776;-78
2022/11/11 03:48:18;;;;;;;;;11.00;10.75;;;;;;;;5089437;27;45408;-78
2022/11/11 03:50:46;;;;;;;;;11.25;10.75;;;;;;;;5091477;27;45231;-78
2022/11/11 03:53:12;;;;;;;;;13.75;12.50;;;;;;;;5087109;27;45327;-79
2022/11/11 03:55:37;;;;;;;;;15.75;11.25;;;;;;;;5078583;27;45587;-78
2022/11/11 03:58:03;;;;;;;;;14.50;13.00;;;;;;;;5081640;27;45334;-78
2022/11/11 04:00:28;;;;;;;;;13.25;12.00;;;;;;;;5078834;27;45231;-78
2022/11/11 04:11:21;;;;;;;;;11.75;11.75;;;;;;;;5078333;27;45283;-78
2022/11/11 04:16:30;;;;;;;;;11.25;11.25;;;;;;;;5085078;27;45213;-79
2022/11/11 04:21:42;;;;;;;;;13.00;11.25;;;;;;;;5094680;27;45427;-78
2022/11/11 04:26:55;;;;;;;;;15.25;11.75;;;;;;;;5092075;27;45295;-78
2022/11/11 04:29:29;;;;;;;;;13.25;12.50;;;;;;;;5081627;27;45783;-77
2022/11/11 04:34:42;;;;;;;;;14.00;12.50;;;;;;;;5092245;27;45265;-78
2022/11/11 04:37:08;;;;;;;;;11.50;11.00;;;;;;;;5083588;27;47264;-77
2022/11/11 04:42:17;;;;;;;;;14.25;12.50;;;;;;;;5086173;27;44729;-77
2022/11/11 04:47:26;;;;;;;;;11.75;11.00;;;;;;;;5087274;27;44835;-77
2022/11/11 04:49:51;;;;;;;;;13.00;11.75;;;;;;;;5086979;27;45448;-77
2022/11/11 04:52:25;;;;;;;;;14.75;12.00;;;;;;;;5095469;27;44725;-77
2022/11/11 04:57:37;;;;;;;;;13.00;12.00;;;;;;;;5092152;27;45461;-77
2022/11/11 05:00:03;;;;;;;;;14.00;13.00;;;;;;;;5081542;27;45317;-77
2022/11/11 05:05:12;;;;;;;;;12.00;12.00;;;;;;;;5081613;27;45248;-77
2022/11/11 05:10:20;;;;;;;;;10.50;7.00;;;;;;;;5086041;27;45256;-77
2022/11/11 05:12:46;;;;;;;;;11.75;10.50;;;;;;;;5090541;27;45370;-77
2022/11/11 05:25:24;;;;;;;;;10.25;10.25;;;;;;;;5081976;27;45346;-78
2022/11/11 05:26:08;;;;;;;;;13.00;11.50;;;;;;;;5080370;27;45282;-77
2022/11/11 05:28:33;;;;;;;;;18.00;12.75;;;;;;;;5084473;27;45431;-77
2022/11/11 05:30:58;;;;;;;;;9.00;6.00;;;;;;;;5081105;27;45430;-78
2022/11/11 05:33:24;;;;;;;;;13.50;12.00;;;;;;;;5083103;27;45237;-77
2022/11/11 05:35:49;;;;;;;;;11.25;10.25;;;;;;;;5081475;27;45489;-77
2022/11/11 05:38:20;;;;;;;;;12.50;10.50;;;;;;;;5082957;27;45213;-77
2022/11/11 05:40:46;;;;;;;;;14.25;12.50;;;;;;;;5086662;27;46194;-77
2022/11/11 05:43:11;;;;;;;;;11.75;11.00;;;;;;;;5088195;27;45161;-77
2022/11/11 05:45:36;;;;;;;;;11.75;9.75;;;;;;;;5094438;27;45538;-77
2022/11/11 05:48:01;;;;;;;;;12.75;11.75;;;;;;;;5088479;27;45549;-77
2022/11/11 05:50:27;;;;;;;;;12.50;11.50;;;;;;;;5095137;27;45502;-77
2022/11/11 05:52:52;;;;;;;;;14.75;14.50;;;;;;;;5084988;27;45253;-78
2022/11/11 05:55:17;;;;;;;;;15.00;14.00;;;;;;;;5091490;27;45374;-77
2022/11/11 05:57:42;;;;;;;;;15.25;12.50;;;;;;;;5087668;27;45540;-77
2022/11/11 06:00:09;;;;;;;;;14.00;10.25;;;;;;;;5094766;27;45455;-78
2022/11/11 06:02:34;;;;;;;;;13.50;12.50;;;;;;;;5085671;27;46537;-77
2022/11/11 06:04:59;;;;;;;;;10.50;8.50;;;;;;;;5085033;27;45561;-77
2022/11/11 06:07:24;;;;;;;;;12.25;11.00;;;;;;;;5085327;27;45218;-77
2022/11/11 06:09:50;;;;;;;;;14.75;12.75;;;;;;;;5080091;27;45208;-77
2022/11/11 06:12:15;;;;;;;;;12.25;11.00;;;;;;;;5081547;27;45577;-77
2022/11/11 06:14:40;;;;;;;;;19.25;12.25;;;;;;;;5079721;27;45336;-77
2022/11/11 06:17:05;;;;;;;;;13.25;11.75;;;;;;;;5080859;27;46896;-78
2022/11/11 06:19:30;;;;;;;;;14.25;11.75;;;;;;;;5080306;27;45271;-78
2022/11/11 06:21:56;;;;;;;;;15.50;14.00;;;;;;;;5080075;27;45284;-77
2022/11/11 06:24:21;;;;;;;;;12.25;11.75;;;;;;;;5080348;27;44807;-77
2022/11/11 06:26:46;;;;;;;;;17.25;12.00;;;;;;;;5080383;27;45577;-77
2022/11/11 06:29:11;;;;;;;;;16.25;12.25;;;;;;;;5091715;27;47413;-78
2022/11/11 06:31:37;;;;;;;;;11.00;11.00;;;;;;;;5088137;27;45417;-78
2022/11/11 06:34:02;;;;;;;;;15.50;14.50;;;;;;;;5087686;27;45437;-78
2022/11/11 06:36:27;;;;;;;;;11.25;10.25;;;;;;;;5081774;27;45424;-77
2022/11/11 06:38:52;;;;;;;;;11.25;11.00;;;;;;;;5081496;27;45347;-78
2022/11/11 06:41:18;;;;;;;;;9.00;9.00;;;;;;;;5079739;27;45381;-79
2022/11/11 06:43:44;;;;;;;;;13.00;11.50;;;;;;;;5092741;27;45450;-78
2022/11/11 06:46:15;;;;;;;;;11.75;9.00;;;;;;;;5094713;27;45511;-77
2022/11/11 06:48:42;;;;;;;;;9.75;9.00;;;;;;;;5079847;27;45340;-76
2022/11/11 06:51:08;;;;;;;;;11.00;11.00;;;;;;;;5084148;27;45309;-78
2022/11/11 06:53:35;;;;;;;;;11.50;7.75;;;;;;;;5081991;27;45341;-77
2022/11/11 06:56:00;;;;;;;;;9.25;9.25;;;;;;;;5080337;27;46352;-77
2022/11/11 06:58:25;;;;;;;;;12.75;10.50;;;;;;;;5085047;27;45458;-76
2022/11/11 07:00:51;;;;;;;;;9.25;6.00;;;;;;;;5093879;27;45260;-76
2022/11/11 07:03:17;;;;;;;;;13.00;10.50;;;;;;;;5089355;27;45291;-76
2022/11/11 07:05:43;;;;;;;;;12.00;11.75;;;;;;;;5079606;27;45662;-76
2022/11/11 07:08:12;;;;;;;;;7.50;7.25;;;;;;;;5081381;27;46504;-76
2022/11/11 07:10:40;;;;;;;;;10.25;6.50;;;;;;;;5090070;27;45363;-76
2022/11/11 07:13:05;;;;;;;;;9.75;6.75;;;;;;;;5083589;27;45475;-76
2022/11/11 07:15:31;;;;;;;;;11.75;9.25;;;;;;;;5087696;27;45620;-77
2022/11/11 07:17:56;;;;;;;;;10.25;9.50;;;;;;;;5091261;27;45305;-76
2022/11/11 07:20:21;;;;;;;;;10.25;7.75;;;;;;;;5085016;27;45288;-76
2022/11/11 07:22:47;;;;;;;;;12.00;7.50;;;;;;;;5085783;27;45220;-75
2022/11/11 07:25:12;;;;;;;;;11.25;7.75;;;;;;;;5089471;27;45149;-75
2022/11/11 07:27:38;;;;;;;;;9.50;8.75;;;;;;;;5088904;27;45221;-77
2022/11/11 07:30:04;;;;;;;;;10.25;7.50;;;;;;;;5086143;27;45291;-74
2022/11/11 07:32:29;;;;;;;;;10.00;6.50;;;;;;;;5084786;27;45460;-75
2022/11/11 07:34:54;;;;;;;;;12.00;7.00;;;;;;;;5089086;27;45350;-76
2022/11/11 07:37:19;;;;;;;;;8.00;7.25;;;;;;;;5083330;27;45416;-75
2022/11/11 07:39:45;;;;;;;;;11.50;8.75;;;;;;;;5081625;27;45422;-76
2022/11/11 07:42:10;;;;;;;;;10.50;8.00;;;;;;;;5080090;27;45489;-76
2022/11/11 07:44:35;;;;;;;;;10.00;10.00;;;;;;;;5080309;27;45779;-76
2022/11/11 07:47:00;;;;;;;;;8.50;8.25;;;;;;;;5086190;27;45581;-76
2022/11/11 07:49:25;;;;;;;;;5.50;5.50;;;;;;;;5091716;27;45342;-76
2022/11/11 07:51:51;;;;;;;;;11.75;6.75;;;;;;;;5084311;27;45336;-78
2022/11/11 07:54:16;;;;;;;;;12.00;8.25;;;;;;;;5085274;27;45287;-77
2022/11/11 07:56:41;;;;;;;;;9.25;9.25;;;;;;;;5087534;27;45649;-77
2022/11/11 07:59:06;;;;;;;;;10.50;10.25;;;;;;;;5086884;27;45394;-77
2022/11/11 08:01:32;;;;;;;;;10.25;8.75;;;;;;;;5088322;27;45461;-77
2022/11/11 08:03:57;;;;;;;;;10.50;8.50;;;;;;;;5085732;27;45362;-76
2022/11/11 08:06:22;;;;;;;;;11.50;8.25;;;;;;;;5086053;27;45294;-76
2022/11/11 08:08:48;;;;;;;;;10.50;8.75;;;;;;;;5086851;27;45374;-75
2022/11/11 08:11:13;;;;;;;;;9.50;8.25;;;;;;;;5089006;27;45340;-74
2022/11/11 08:13:42;;;;;;;;;7.00;7.00;;;;;;;;5089491;27;45977;-76
2022/11/11 08:16:11;;;;;;;;;7.00;7.00;;;;;;;;5084882;27;45294;-76
2022/11/11 08:18:37;;;;;;;;;13.00;11.75;;;;;;;;5104690;27;45268;-75
2022/11/11 08:21:02;;;;;;;;;12.50;8.00;;;;;;;;5102210;27;45294;-76
2022/11/11 08:23:33;;;;;;;;;8.25;8.25;;;;;;;;5085030;27;45549;-75
2022/11/11 08:26:03;;;;;;;;;12.25;11.00;;;;;;;;5096727;27;45281;-75
2022/11/11 08:28:29;;;;;;;;;12.00;12.00;;;;;;;;5092842;27;45421;-75
2022/11/11 08:30:54;;;;;;;;;12.00;10.75;;;;;;;;5085257;27;45423;-78
2022/11/11 08:33:19;;;;;;;;;13.00;12.50;;;;;;;;5085763;27;45359;-75
2022/11/11 08:35:45;;;;;;;;;13.50;11.75;;;;;;;;5088180;27;47010;-76
2022/11/11 08:38:10;;;;;;;;;14.00;11.50;;;;;;;;5088207;27;45247;-76
2022/11/11 08:40:35;;;;;;;;;21.00;18.25;;;;;;;;5085357;27;45413;-76
2022/11/11 08:43:00;;;;;;;;;13.00;11.00;;;;;;;;5088077;27;46061;-76
2022/11/11 08:45:26;;;;;;;;;11.25;11.25;;;;;;;;5084842;27;45685;-76
2022/11/11 08:47:51;;;;;;;;;11.00;7.50;;;;;;;;5091474;27;45254;-76
2022/11/11 08:50:16;;;;;;;;;11.50;11.00;;;;;;;;5097280;27;45456;-77
2022/11/11 08:52:47;;;;;;;;;12.25;7.50;;;;;;;;5090566;27;44963;-75
2022/11/11 08:55:12;;;;;;;;;11.75;10.50;;;;;;;;5085183;27;45396;-75
2022/11/11 08:57:37;;;;;;;;;18.50;13.50;;;;;;;;5093936;27;45607;-75
2022/11/11 09:00:03;;;;;;;;;16.00;13.00;;;;;;;;5084578;27;45280;-76
2022/11/11 09:02:28;;;;;;;;;16.50;13.50;;;;;;;;5083597;27;45306;-75
2022/11/11 09:04:53;;;;;;;;;21.50;17.00;;;;;;;;5080319;27;45487;-75
2022/11/11 09:07:19;;;;;;;;;13.25;12.00;;;;;;;;5089205;27;45472;-76
2022/11/11 09:09:44;;;;;;;;;11.00;11.00;;;;;;;;5080293;27;45381;-76
2022/11/11 09:12:09;;;;;;;;;13.25;11.75;;;;;;;;5083154;27;45338;-75
2022/11/11 09:14:34;;;;;;;;;14.00;13.75;;;;;;;;5079709;27;46919;-77
2022/11/11 09:16:59;;;;;;;;;17.25;13.50;;;;;;;;5081776;27;45460;-77
2022/11/11 09:19:25;;;;;;;;;6.00;5.50;;;;;;;;5081328;27;45503;-77
2022/11/11 09:21:51;;;;;;;;;12.50;9.50;;;;;;;;5082362;27;45490;-76
2022/11/11 09:24:17;;;;;;;;;14.00;11.75;;;;;;;;5080348;27;45768;-76
2022/11/11 09:26:42;;;;;;;;;14.50;14.50;;;;;;;;5080848;27;45142;-77
2022/11/11 09:29:07;;;;;;;;;11.25;9.75;;;;;;;;5080786;27;45359;-77
2022/11/11 09:31:32;;;;;;;;;14.75;13.25;;;;;;;;5081001;27;45157;-78
2022/11/11 09:33:57;;;;;;;;;13.25;11.75;;;;;;;;5081867;27;45357;-78
2022/11/11 09:36:22;;;;;;;;;16.50;12.50;;;;;;;;5079856;27;46047;-78
2022/11/11 09:38:48;;;;;;;;;21.00;13.00;;;;;;;;5080418;27;45270;-78
2022/11/11 09:41:32;;;;;;;;;15.25;13.75;;;;;;;;5079870;27;45243;-78
2022/11/11 09:43:59;;;;;;;;;20.50;15.50;;;;;;;;5080225;27;45376;-77
2022/11/11 09:46:54;;;;;;;;;13.00;13.00;;;;;;;;5080818;27;45443;-75
2022/11/11 09:49:19;;;;;;;;;17.25;15.25;;;;;;;;5077139;27;45291;-77
2022/11/11 09:51:47;;;;;;;;;11.75;11.75;;;;;;;;5082191;27;45322;-77
2022/11/11 09:54:16;;;;;;;;;11.50;11.50;;;;;;;;5088881;27;45505;-77
2022/11/11 09:56:41;;;;;;;;;12.75;12.00;;;;;;;;5091282;27;45343;-76
2022/11/11 09:59:29;;;;;;;;;14.50;12.50;;;;;;;;5083747;27;45344;-76
2022/11/11 10:01:55;;;;;;;;;12.00;8.75;;;;;;;;5082666;27;45421;-76
2022/11/11 10:04:30;;;;;;;;;15.25;11.75;;;;;;;;5087000;27;47352;-76
2022/11/11 10:06:59;;;;;;;;;12.50;8.00;;;;;;;;5080213;27;45505;-76
2022/11/11 10:09:40;;;;;;;;;11.25;11.00;;;;;;;;5080510;27;45367;-77
2022/11/11 10:12:12;;;;;;;;;9.00;7.25;;;;;;;;5091973;27;45618;-76
2022/11/11 10:14:40;;;;;;;;;6.00;5.75;;;;;;;;5077633;27;45659;-76
2022/11/11 10:17:31;;;;;;;;;11.25;8.00;;;;;;;;5078957;27;45320;-76
2022/11/11 10:20:02;;;;;;;;;12.50;9.25;;;;;;;;5080414;27;45239;-76
2022/11/11 10:22:32;;;;;;;;;10.00;10.00;;;;;;;;5081056;27;46289;-76
2022/11/11 10:25:07;;;;;;;;;10.75;10.75;;;;;;;;5083627;27;45410;-76
2022/11/11 10:27:32;;;;;;;;;9.50;8.75;;;;;;;;5094300;27;45611;-76
2022/11/11 10:29:58;;;;;;;;;14.00;13.00;;;;;;;;5092014;27;45220;-77
2022/11/11 10:32:25;;;;;;;;;12.75;12.75;;;;;;;;5084319;27;45331;-77
2022/11/11 10:34:51;;;;;;;;;16.50;13.50;;;;;;;;5089087;27;45300;-77
2022/11/11 10:37:25;;;;;;;;;12.75;12.75;;;;;;;;5080993;27;45605;-76
2022/11/11 10:39:58;;;;;;;;;13.50;11.00;;;;;;;;5084272;27;45308;-77
2022/11/11 10:42:24;;;;;;;;;18.00;14.50;;;;;;;;5086764;27;46610;-77
2022/11/11 10:44:50;;;;;;;;;14.00;12.00;;;;;;;;5085279;27;45371;-76
2022/11/11 10:47:23;;;;;;;;;16.00;13.75;;;;;;;;5080757;27;45437;-76
2022/11/11 10:49:57;;;;;;;;;15.00;13.50;;;;;;;;5079965;27;45259;-77
2022/11/11 10:52:24;;;;;;;;;10.25;10.00;;;;;;;;5079632;27;45441;-77
2022/11/11 10:54:49;;;;;;;;;15.50;12.00;;;;;;;;5083292;27;46948;-78
2022/11/11 10:57:37;;;;;;;;;13.75;13.25;;;;;;;;5094724;27;45320;-79
2022/11/11 11:00:06;;;;;;;;;10.25;10.25;;;;;;;;5092100;27;45426;-80
2022/11/11 11:02:50;;;;;;;;;15.50;13.00;;;;;;;;5094524;27;46071;-79
2022/11/11 11:05:24;;;;;;;;;14.00;12.00;;;;;;;;5089628;27;45514;-80
2022/11/11 11:07:52;;;;;;;;;13.50;12.25;;;;;;;;5079507;27;45592;-78
2022/11/11 11:10:23;;;;;;;;;16.25;14.00;;;;;;;;5078896;27;45451;-77
2022/11/11 11:13:11;;;;;;;;;12.75;12.75;;;;;;;;5079450;27;45504;-76
2022/11/11 11:15:39;;;;;;;;;11.25;11.25;;;;;;;;5079007;27;45557;-76
2022/11/11 11:18:10;;;;;;;;;12.00;11.50;;;;;;;;5081366;27;45202;-77
2022/11/11 11:20:35;;;;;;;;;13.00;13.00;;;;;;;;5080120;27;45412;-76
2022/11/11 11:23:01;;;;;;;;;15.75;14.50;;;;;;;;5078518;27;45593;-76
2022/11/11 11:25:28;;;;;;;;;14.75;14.75;;;;;;;;5077363;27;45965;-76
2022/11/11 11:28:03;;;;;;;;;14.50;12.75;;;;;;;;5077940;27;45275;-76
2022/11/11 11:30:28;;;;;;;;;15.00;13.00;;;;;;;;5092037;27;45413;-77
2022/11/11 11:32:57;;;;;;;;;12.75;12.75;;;;;;;;5090084;27;46087;-76
2022/11/11 11:35:30;;;;;;;;;14.50;13.00;;;;;;;;5085063;27;45448;-76
2022/11/11 11:37:55;;;;;;;;;17.00;16.00;;;;;;;;5091314;27;45390;-76
2022/11/11 11:40:20;;;;;;;;;12.00;12.00;;;;;;;;5081584;27;44724;-77
2022/11/11 11:42:46;;;;;;;;;16.25;15.00;;;;;;;;5080969;27;45295;-76
2022/11/11 11:45:14;;;;;;;;;18.00;18.00;;;;;;;;5078357;27;46929;-76
2022/11/11 11:47:50;;;;;;;;;15.50;15.00;;;;;;;;5081067;27;45524;-76
2022/11/11 11:50:15;;;;;;;;;13.50;13.50;;;;;;;;5084556;27;45241;-76
2022/11/11 11:52:53;;;;;;;;;17.00;13.75;;;;;;;;5087927;27;45481;-77
2022/11/11 11:55:21;;;;;;;;;11.75;10.25;;;;;;;;5089707;27;47324;-75
2022/11/11 11:57:56;;;;;;;;;13.50;13.50;;;;;;;;5088292;27;45333;-76
2022/11/11 12:00:21;;;;;;;;;16.50;16.25;;;;;;;;5093114;27;45648;-75
2022/11/11 12:03:02;;;;;;;;;16.25;13.00;;;;;;;;5084665;27;46200;-75
2022/11/11 12:05:33;;;;;;;;;16.00;16.00;;;;;;;;5094236;27;47337;-76
2022/11/11 12:08:16;;;;;;;;;19.25;14.75;;;;;;;;5083394;27;45501;-75
2022/11/11 12:10:45;;;;;;;;;14.75;13.75;;;;;;;;5078441;28;45517;-75
2022/11/11 12:13:13;;;;;;;;;16.25;15.00;;;;;;;;5079845;27;45292;-76
2022/11/11 12:15:46;;;;;;;;;16.50;16.50;;;;;;;;5078603;28;47141;-76
2022/11/11 12:18:20;;;;;;;;;12.00;12.00;;;;;;;;5079072;27;45494;-76
2022/11/11 12:20:54;;;;;;;;;16.50;16.50;;;;;;;;5078870;27;45378;-76
2022/11/11 12:23:20;;;;;;;;;17.75;16.00;;;;;;;;5089055;27;46599;-75
2022/11/11 12:26:00;;;;;;;;;16.50;12.75;;;;;;;;5078844;27;46304;-76
2022/11/11 12:28:34;;;;;;;;;11.00;11.00;;;;;;;;5088788;27;45741;-76
2022/11/11 12:31:12;;;;;;;;;17.25;15.25;;;;;;;;5090231;27;45213;-76
2022/11/11 12:33:37;;;;;;;;;15.00;13.00;;;;;;;;5080454;27;45320;-76
2022/11/11 12:36:05;;;;;;;;;14.25;13.25;;;;;;;;5082770;27;45323;-76
2022/11/11 12:38:49;;;;;;;;;15.75;15.25;;;;;;;;5085906;27;45371;-76
2022/11/11 12:41:14;;;;;;;;;20.00;18.50;;;;;;;;5081255;27;45300;-76
2022/11/11 12:43:53;;;;;;;;;15.25;13.75;;;;;;;;5084011;27;45464;-76
2022/11/11 12:46:25;;;;;;;;;20.25;18.00;;;;;;;;5091232;27;47328;-76
2022/11/11 12:48:55;;;;;;;;;18.75;17.25;;;;;;;;5085225;27;45472;-76
2022/11/11 12:51:20;;;;;;;;;19.75;17.50;;;;;;;;5091152;27;44654;-76
2022/11/11 12:53:54;;;;;;;;;19.75;16.00;;;;;;;;5080780;27;45295;-77
2022/11/11 12:56:26;;;;;;;;;20.75;19.50;;;;;;;;5094113;27;46211;-77
2022/11/11 12:58:51;;;;;;;;;19.25;19.00;;;;;;;;5082449;27;45405;-76
2022/11/11 13:01:39;;;;;;;;;18.75;16.00;;;;;;;;5095427;27;45268;-76
2022/11/11 13:04:22;;;;;;;;;23.25;18.25;;;;;;;;5083688;27;45150;-76
2022/11/11 13:07:06;;;;;;;;;20.25;18.75;;;;;;;;5080275;27;47652;-78
2022/11/11 13:09:37;;;;;;;;;19.50;16.25;;;;;;;;5087445;27;45403;-77
2022/11/11 13:12:05;;;;;;;;;71.00;52.50;;;;;;;;5081963;27;45237;-77
2022/11/11 13:14:49;;;;;;;;;57.75;49.00;;;;;;;;5086464;27;46880;-77
2022/11/11 13:17:15;;;;;;;;;29.50;24.25;;;;;;;;5083001;27;45683;-77
2022/11/11 13:19:43;;;;;;;;;19.00;18.25;;;;;;;;5081337;27;45351;-77
2022/11/11 13:22:11;;;;;;;;;12.67;12.67;;;;;;;;5083385;27;45434;-78
2022/11/11 13:24:37;;;;;;;;;18.25;16.75;;;;;;;;5080856;27;45395;-76
2022/11/11 13:27:05;;;;;;;;;21.00;19.00;;;;;;;;5082516;27;46506;-76
2022/11/11 13:29:33;;;;;;;;;19.00;15.25;;;;;;;;5088714;27;45447;-76
2022/11/11 13:32:00;;;;;;;;;15.50;14.25;;;;;;;;5089648;27;45438;-76
2022/11/11 13:34:26;;;;;;;;;18.00;15.25;;;;;;;;5090628;27;45349;-76
2022/11/11 13:36:53;;;;;;;;;19.25;19.00;;;;;;;;5082872;27;45584;-76
2022/11/11 13:39:27;;;;;;;;;19.75;15.75;;;;;;;;5094293;27;45374;-76
2022/11/11 13:41:54;;;;;;;;;20.50;17.50;;;;;;;;5095447;27;44721;-76
2022/11/11 13:44:27;;;;;;;;;15.00;15.00;;;;;;;;5080541;27;45528;-76
2022/11/11 13:46:58;;;;;;;;;16.33;12.00;;;;;;;;5084934;27;45529;-77
2022/11/11 13:49:40;;;;;;;;;17.67;15.33;;;;;;;;5078580;27;45193;-76
2022/11/11 13:52:19;;;;;;;;;12.00;11.33;;;;;;;;5084379;27;45499;-78
2022/11/11 13:54:48;;;;;;;;;17.75;15.25;;;;;;;;5090194;27;45846;-77
2022/11/11 13:57:17;;;;;;;;;17.67;17.33;;;;;;;;5096036;27;45353;-77
2022/11/11 13:59:50;;;;;;;;;18.33;18.00;;;;;;;;5087104;27;45328;-77
2022/11/11 14:02:21;;;;;;;;;15.67;13.00;;;;;;;;5094314;27;45398;-77
2022/11/11 14:05:02;;;;;;;;;19.00;17.67;;;;;;;;5081193;27;45300;-77
2022/11/11 14:07:43;;;;;;;;;20.67;16.33;;;;;;;;5082016;27;46029;-77
2022/11/11 14:10:28;;;;;;;;;21.25;20.00;;;;;;;;5079683;27;45403;-76
2022/11/11 14:12:54;;;;;;;;;15.00;15.00;;;;;;;;5085603;27;45401;-76
2022/11/11 14:15:39;;;;;;;;;17.67;13.00;;;;;;;;5079892;27;45420;-76
2022/11/11 14:18:09;;;;;;;;;14.67;13.33;;;;;;;;5080029;27;45280;-77
2022/11/11 14:20:36;;;;;;;;;16.33;14.00;;;;;;;;5080112;27;45279;-75
2022/11/11 14:23:31;;;;;;;;;21.00;12.67;;;;;;;;5085187;27;45511;-74
2022/11/11 14:26:05;;;;;;;;;16.00;13.67;;;;;;;;5070517;27;45354;-76
2022/11/11 14:28:32;;;;;;;;;16.00;14.67;;;;;;;;5093014;27;48355;-76
2022/11/11 14:31:17;;;;;;;;;15.67;15.33;;;;;;;;5094474;27;44781;-68
2022/11/11 14:33:58;;;;;;;;;20.00;17.33;;;;;;;;5086946;27;45286;-70
2022/11/11 14:36:42;;;;;;;;;13.67;13.67;;;;;;;;5089089;27;45221;-68
2022/11/11 14:39:07;;;;;;;;;14.67;13.33;;;;;;;;5079276;27;45489;-69
2022/11/11 14:41:52;;;;;;;;;15.00;12.67;;;;;;;;5081028;27;45419;-69
2022/11/11 14:44:26;;;;;;;;;14.00;13.33;;;;;;;;5083829;27;45240;-69
2022/11/11 14:47:06;;;;;;;;;16.67;13.00;;;;;;;;5090919;27;45592;-68
2022/11/11 14:49:41;;;;;;;;;12.00;12.00;;;;;;;;5079441;27;46304;-74
2022/11/11 14:52:16;;;;;;;;;14.67;14.00;;;;;;;;5083042;27;45463;-75
2022/11/11 14:55:00;;;;;;;;;14.00;13.00;;;;;;;;5079513;27;45247;-75
2022/11/11 14:57:29;;;;;;;;;23.67;20.00;;;;;;;;5085781;27;45506;-75
2022/11/11 14:59:55;;;;;;;;;12.67;12.67;;;;;;;;5078906;27;45693;-75
2022/11/11 15:02:23;;;;;;;;;18.67;16.67;;;;;;;;5084284;27;45417;-74
2022/11/11 15:04:49;;;;;;;;;17.33;15.00;;;;;;;;5088880;27;45352;-75
2022/11/11 15:07:21;;;;;;;;;15.00;15.00;;;;;;;;5091802;27;45445;-74
2022/11/11 15:10:05;;;;;;;;;15.00;14.67;;;;;;;;5087471;27;45431;-74
2022/11/11 15:12:42;;;;;;;;;14.00;14.00;;;;;;;;5083972;27;45687;-74
2022/11/11 15:15:18;;;;;;;;;15.00;12.00;;;;;;;;5081837;27;45258;-75
2022/11/11 15:17:59;;;;;;;;;15.00;15.00;;;;;;;;5082090;27;45493;-75
2022/11/11 15:20:33;;;;;;;;;16.67;15.00;;;;;;;;5078715;27;46203;-75
2022/11/11 15:23:01;;;;;;;;;16.00;16.00;;;;;;;;5083928;27;45457;-76
2022/11/11 15:25:32;;;;;;;;;18.67;15.33;;;;;;;;5078981;27;45270;-76
2022/11/11 15:28:12;;;;;;;;;15.00;15.00;;;;;;;;5087758;27;45800;-76
2022/11/11 15:30:40;;;;;;;;;19.67;15.00;;;;;;;;5091358;27;45316;-76
2022/11/11 15:33:18;;;;;;;;;19.00;15.00;;;;;;;;5078892;27;45499;-76
2022/11/11 15:35:59;;;;;;;;;29.00;26.00;;;;;;;;5093935;27;45273;-76
2022/11/11 15:38:24;;;;;;;;;28.33;26.33;;;;;;;;5081584;27;45408;-74